SWA1949 KDAL-KMCO
Flight info
| Callsign | SWA1949 |
|---|---|
| Flight time | N/A |
| Altitude | 37000 |
| Route | LNDRE5 ZALEA REDFN Y280 CHRGE PRICY5 |
| Aircraft | B738/M-SADE2E3GIJ4RWZ/LB1D1 |
Departure
| Time | 2026-05-06 21:46 |
|---|---|
| Airport | Dallas Love Field (KDAL) |
Arrival
| Time | N/A |
|---|---|
| Airport | Orlando International Airport (KMCO) |
| Time | Latitude | Longitude | Altitude | Speed | Heading |
|---|---|---|---|---|---|
| 2026-05-06 21:28 | 32.84648 | -96.84991 | 492 ft | 0 kts | 180° |
| 2026-05-06 21:38 | 32.84660 | -96.84991 | 492 ft | 2 kts | 180° |
| 2026-05-06 21:38 | 32.84674 | -96.84991 | 492 ft | 2 kts | 180° |
| 2026-05-06 21:38 | 32.84684 | -96.84991 | 492 ft | 1 kts | 180° |
| 2026-05-06 21:39 | 32.84699 | -96.84991 | 492 ft | 2 kts | 165° |
| 2026-05-06 21:39 | 32.84713 | -96.84998 | 492 ft | 2 kts | 152° |
| 2026-05-06 21:39 | 32.84725 | -96.85008 | 492 ft | 2 kts | 137° |
| 2026-05-06 21:39 | 32.84735 | -96.85021 | 492 ft | 2 kts | 123° |
| 2026-05-06 21:40 | 32.84742 | -96.85036 | 492 ft | 2 kts | 109° |
| 2026-05-06 21:40 | 32.84745 | -96.85053 | 492 ft | 2 kts | 95° |
| 2026-05-06 21:40 | 32.84745 | -96.85062 | 492 ft | 1 kts | 89° |
| 2026-05-06 21:40 | 32.84745 | -96.85064 | 492 ft | 0 kts | 90° |
| 2026-05-06 21:42 | 32.84745 | -96.85028 | 492 ft | 11 kts | 90° |
| 2026-05-06 21:42 | 32.84743 | -96.84874 | 492 ft | 23 kts | 92° |
| 2026-05-06 21:42 | 32.84656 | -96.84686 | 492 ft | 29 kts | 136° |
| 2026-05-06 21:43 | 32.84588 | -96.84552 | 492 ft | 14 kts | 117° |
| 2026-05-06 21:43 | 32.84522 | -96.84464 | 492 ft | 13 kts | 134° |
| 2026-05-06 21:43 | 32.84456 | -96.84387 | 492 ft | 12 kts | 136° |
| 2026-05-06 21:43 | 32.84394 | -96.84317 | 492 ft | 11 kts | 136° |
| 2026-05-06 21:44 | 32.84338 | -96.84250 | 492 ft | 11 kts | 135° |
| 2026-05-06 21:44 | 32.84262 | -96.84162 | 492 ft | 20 kts | 136° |
| 2026-05-06 21:44 | 32.84163 | -96.84044 | 492 ft | 17 kts | 125° |
| 2026-05-06 21:44 | 32.84191 | -96.83946 | 492 ft | 14 kts | 34° |
| 2026-05-06 21:45 | 32.84256 | -96.83971 | 492 ft | 11 kts | 315° |
| 2026-05-06 21:45 | 32.84441 | -96.84187 | 492 ft | 77 kts | 315° |
| 2026-05-06 21:45 | 32.85026 | -96.84866 | 492 ft | 154 kts | 315° |
| 2026-05-06 21:45 | 32.85907 | -96.85890 | 794 ft | 192 kts | 318° |
| 2026-05-06 21:46 | 32.86872 | -96.87031 | 1710 ft | 196 kts | 317° |
| 2026-05-06 21:46 | 32.88015 | -96.87942 | 2253 ft | 205 kts | 346° |
| 2026-05-06 21:46 | 32.89440 | -96.87869 | 2711 ft | 213 kts | 19° |
| 2026-05-06 21:46 | 32.90720 | -96.86875 | 3084 ft | 232 kts | 46° |
| 2026-05-06 21:47 | 32.91587 | -96.85210 | 3653 ft | 245 kts | 69° |
| 2026-05-06 21:47 | 32.91708 | -96.83140 | 4061 ft | 265 kts | 103° |
| 2026-05-06 21:47 | 32.90788 | -96.81210 | 4598 ft | 277 kts | 137° |
| 2026-05-06 21:47 | 32.89178 | -96.79983 | 5335 ft | 277 kts | 157° |
| 2026-05-06 21:48 | 32.87418 | -96.79061 | 6046 ft | 280 kts | 158° |
| 2026-05-06 21:48 | 32.85650 | -96.78065 | 6782 ft | 283 kts | 156° |
| 2026-05-06 21:48 | 32.83908 | -96.76959 | 7532 ft | 285 kts | 154° |
| 2026-05-06 21:48 | 32.82193 | -96.75794 | 8212 ft | 288 kts | 154° |
| 2026-05-06 21:49 | 32.80440 | -96.74574 | 8927 ft | 291 kts | 154° |
| 2026-05-06 21:49 | 32.78713 | -96.73368 | 9605 ft | 293 kts | 154° |
| 2026-05-06 21:49 | 32.76949 | -96.72143 | 10245 ft | 297 kts | 155° |
| 2026-05-06 21:49 | 32.75102 | -96.70873 | 10585 ft | 312 kts | 156° |
| 2026-05-06 21:50 | 32.73188 | -96.69563 | 10888 ft | 328 kts | 156° |
| 2026-05-06 21:50 | 32.71226 | -96.68026 | 11200 ft | 348 kts | 146° |
| 2026-05-06 21:50 | 32.69550 | -96.65823 | 11475 ft | 374 kts | 127° |
| 2026-05-06 21:50 | 32.68529 | -96.62938 | 12130 ft | 385 kts | 106° |
| 2026-05-06 21:51 | 32.68193 | -96.59810 | 13002 ft | 385 kts | 97° |
| 2026-05-06 21:51 | 32.68082 | -96.56683 | 13856 ft | 381 kts | 95° |
| 2026-05-06 21:51 | 32.68042 | -96.53568 | 14739 ft | 377 kts | 93° |
| 2026-05-06 21:51 | 32.68164 | -96.50501 | 15589 ft | 374 kts | 89° |
| 2026-05-06 21:52 | 32.68413 | -96.47388 | 16215 ft | 379 kts | 87° |
| 2026-05-06 21:52 | 32.68710 | -96.44277 | 16739 ft | 385 kts | 87° |
| 2026-05-06 21:52 | 32.69013 | -96.41098 | 17306 ft | 389 kts | 88° |
| 2026-05-06 21:52 | 32.69297 | -96.37934 | 17835 ft | 394 kts | 88° |
| 2026-05-06 21:53 | 32.69547 | -96.34685 | 18351 ft | 397 kts | 91° |
| 2026-05-06 21:53 | 32.69624 | -96.31431 | 18868 ft | 398 kts | 96° |
| 2026-05-06 21:53 | 32.69506 | -96.28130 | 19330 ft | 401 kts | 99° |
| 2026-05-06 21:53 | 32.69290 | -96.24847 | 19826 ft | 403 kts | 101° |
| 2026-05-06 21:54 | 32.69034 | -96.21503 | 20338 ft | 405 kts | 101° |
| 2026-05-06 21:54 | 32.68775 | -96.18202 | 20770 ft | 410 kts | 101° |
| 2026-05-06 21:54 | 32.68515 | -96.14793 | 21220 ft | 414 kts | 101° |
| 2026-05-06 21:54 | 32.68264 | -96.11394 | 21662 ft | 417 kts | 100° |
| 2026-05-06 21:55 | 32.68022 | -96.07990 | 22090 ft | 420 kts | 100° |
| 2026-05-06 21:55 | 32.67780 | -96.04533 | 22471 ft | 425 kts | 100° |
| 2026-05-06 21:55 | 32.67536 | -96.00995 | 22952 ft | 427 kts | 100° |
| 2026-05-06 21:55 | 32.67296 | -95.97498 | 23403 ft | 429 kts | 100° |
| 2026-05-06 21:56 | 32.67053 | -95.93999 | 23807 ft | 433 kts | 100° |
| 2026-05-06 21:56 | 32.66805 | -95.90395 | 24219 ft | 435 kts | 100° |
| 2026-05-06 21:56 | 32.66560 | -95.86809 | 24535 ft | 441 kts | 100° |
| 2026-05-06 21:56 | 32.66312 | -95.83182 | 24945 ft | 444 kts | 100° |
| 2026-05-06 21:57 | 32.66065 | -95.79542 | 25287 ft | 447 kts | 100° |
| 2026-05-06 21:57 | 32.65801 | -95.75828 | 25674 ft | 450 kts | 100° |
| 2026-05-06 21:57 | 32.65537 | -95.72129 | 26064 ft | 452 kts | 100° |
| 2026-05-06 21:57 | 32.65273 | -95.68402 | 26399 ft | 456 kts | 100° |
| 2026-05-06 21:58 | 32.65012 | -95.64645 | 26782 ft | 458 kts | 101° |
| 2026-05-06 21:58 | 32.64756 | -95.60904 | 27176 ft | 460 kts | 101° |
| 2026-05-06 21:58 | 32.64489 | -95.57071 | 27471 ft | 464 kts | 100° |
| 2026-05-06 21:58 | 32.64222 | -95.53295 | 27809 ft | 466 kts | 101° |
| 2026-05-06 21:59 | 32.63940 | -95.49432 | 28189 ft | 467 kts | 101° |
| 2026-05-06 21:59 | 32.63658 | -95.45626 | 28545 ft | 468 kts | 101° |
| 2026-05-06 21:59 | 32.63374 | -95.41784 | 28866 ft | 471 kts | 101° |
| 2026-05-06 21:59 | 32.63086 | -95.37870 | 29180 ft | 473 kts | 101° |
| 2026-05-06 22:00 | 32.62806 | -95.34001 | 29495 ft | 475 kts | 102° |
| 2026-05-06 22:00 | 32.62515 | -95.30054 | 29649 ft | 481 kts | 102° |
| 2026-05-06 22:00 | 32.62221 | -95.26108 | 29936 ft | 482 kts | 101° |
| 2026-05-06 22:00 | 32.61931 | -95.22166 | 30198 ft | 485 kts | 101° |
| 2026-05-06 22:01 | 32.61641 | -95.18206 | 30578 ft | 483 kts | 102° |
| 2026-05-06 22:01 | 32.61348 | -95.14240 | 30891 ft | 484 kts | 101° |
| 2026-05-06 22:01 | 32.61053 | -95.10274 | 31115 ft | 487 kts | 101° |
| 2026-05-06 22:01 | 32.60748 | -95.06240 | 31331 ft | 490 kts | 101° |
| 2026-05-06 22:02 | 32.60439 | -95.02207 | 31464 ft | 495 kts | 101° |
| 2026-05-06 22:02 | 32.60129 | -94.98158 | 31910 ft | 492 kts | 101° |
| 2026-05-06 22:02 | 32.59820 | -94.94134 | 32187 ft | 493 kts | 101° |
| 2026-05-06 22:02 | 32.59511 | -94.90126 | 32377 ft | 496 kts | 101° |
| 2026-05-06 22:03 | 32.59193 | -94.86016 | 32646 ft | 497 kts | 101° |
| 2026-05-06 22:03 | 32.58857 | -94.81953 | 32796 ft | 500 kts | 102° |
| 2026-05-06 22:03 | 32.58381 | -94.77886 | 33002 ft | 499 kts | 107° |
| 2026-05-06 22:03 | 32.57647 | -94.73893 | 33376 ft | 493 kts | 111° |
| 2026-05-06 22:04 | 32.56700 | -94.69987 | 33555 ft | 492 kts | 115° |
| 2026-05-06 22:04 | 32.55629 | -94.66130 | 33734 ft | 494 kts | 117° |
| 2026-05-06 22:04 | 32.54496 | -94.62270 | 33953 ft | 496 kts | 118° |
| 2026-05-06 22:04 | 32.53350 | -94.58433 | 34086 ft | 500 kts | 118° |
| 2026-05-06 22:05 | 32.52185 | -94.54528 | 34305 ft | 502 kts | 117° |
| 2026-05-06 22:05 | 32.51016 | -94.50580 | 34493 ft | 505 kts | 117° |
| 2026-05-06 22:05 | 32.49865 | -94.46656 | 34618 ft | 510 kts | 116° |
| 2026-05-06 22:05 | 32.48692 | -94.42617 | 34814 ft | 513 kts | 117° |
| 2026-05-06 22:06 | 32.47543 | -94.38623 | 35166 ft | 512 kts | 117° |
| 2026-05-06 22:06 | 32.46420 | -94.34689 | 35599 ft | 509 kts | 117° |
| 2026-05-06 22:06 | 32.45277 | -94.30675 | 35843 ft | 509 kts | 117° |
| 2026-05-06 22:06 | 32.44156 | -94.26743 | 36160 ft | 507 kts | 117° |
| 2026-05-06 22:07 | 32.43024 | -94.22777 | 36401 ft | 507 kts | 117° |
| 2026-05-06 22:07 | 32.41884 | -94.18796 | 36499 ft | 510 kts | 117° |
| 2026-05-06 22:07 | 32.40738 | -94.14806 | 36670 ft | 511 kts | 117° |
| 2026-05-06 22:07 | 32.39585 | -94.10800 | 36819 ft | 513 kts | 116° |
| 2026-05-06 22:08 | 32.38445 | -94.06845 | 36939 ft | 514 kts | 117° |
| 2026-05-06 22:08 | 32.37281 | -94.02817 | 36939 ft | 517 kts | 117° |
| 2026-05-06 22:08 | 32.34943 | -93.94733 | 36945 ft | 524 kts | 116° |
| 2026-05-06 22:09 | 32.32565 | -93.86517 | 36945 ft | 531 kts | 116° |
| 2026-05-06 22:09 | 32.30161 | -93.78234 | 36942 ft | 538 kts | 116° |
| 2026-05-06 22:10 | 32.27730 | -93.69874 | 36943 ft | 542 kts | 116° |
| 2026-05-06 22:10 | 32.25278 | -93.61442 | 36932 ft | 539 kts | 116° |
| 2026-05-06 22:11 | 32.22808 | -93.53194 | 36925 ft | 534 kts | 118° |
| 2026-05-06 22:11 | 32.19608 | -93.45446 | 36921 ft | 520 kts | 130° |
| 2026-05-06 22:12 | 32.15484 | -93.38513 | 36916 ft | 511 kts | 137° |
| 2026-05-06 22:12 | 32.11109 | -93.31952 | 36926 ft | 509 kts | 139° |
| 2026-05-06 22:13 | 32.06689 | -93.25394 | 36925 ft | 509 kts | 138° |
| 2026-05-06 22:13 | 32.02254 | -93.18765 | 36927 ft | 509 kts | 138° |
| 2026-05-06 22:14 | 31.97907 | -93.12225 | 36918 ft | 507 kts | 137° |
| 2026-05-06 22:14 | 31.93568 | -93.05682 | 36922 ft | 508 kts | 138° |
| 2026-05-06 22:15 | 31.89190 | -92.99083 | 36912 ft | 511 kts | 137° |
| 2026-05-06 22:15 | 31.84822 | -92.92506 | 36914 ft | 511 kts | 137° |
| 2026-05-06 22:16 | 31.80469 | -92.85958 | 36908 ft | 507 kts | 137° |
| 2026-05-06 22:16 | 31.76093 | -92.79399 | 36894 ft | 511 kts | 137° |
| 2026-05-06 22:17 | 31.71680 | -92.72794 | 36904 ft | 513 kts | 137° |
| 2026-05-06 22:17 | 31.67308 | -92.66254 | 36893 ft | 509 kts | 137° |
| 2026-05-06 22:18 | 31.62925 | -92.59709 | 36884 ft | 510 kts | 137° |
| 2026-05-06 22:18 | 31.58507 | -92.53127 | 36889 ft | 511 kts | 137° |
| 2026-05-06 22:19 | 31.54125 | -92.46609 | 36889 ft | 511 kts | 137° |
| 2026-05-06 22:19 | 31.49704 | -92.40050 | 36880 ft | 512 kts | 136° |
| 2026-05-06 22:20 | 31.45308 | -92.33534 | 36880 ft | 510 kts | 137° |
| 2026-05-06 22:20 | 31.40927 | -92.27043 | 36880 ft | 508 kts | 137° |
| 2026-05-06 22:21 | 31.36531 | -92.20555 | 36875 ft | 510 kts | 137° |
| 2026-05-06 22:21 | 31.32099 | -92.14026 | 36877 ft | 511 kts | 137° |
| 2026-05-06 22:22 | 31.27681 | -92.07516 | 36875 ft | 509 kts | 137° |
| 2026-05-06 22:22 | 31.23296 | -92.01065 | 36882 ft | 507 kts | 137° |
| 2026-05-06 22:23 | 31.18894 | -91.94607 | 36876 ft | 509 kts | 137° |
| 2026-05-06 22:23 | 31.14496 | -91.88171 | 36872 ft | 509 kts | 136° |
| 2026-05-06 22:24 | 31.10088 | -91.81725 | 36874 ft | 509 kts | 136° |
| 2026-05-06 22:24 | 31.05638 | -91.75225 | 36858 ft | 509 kts | 136° |
| 2026-05-06 22:25 | 31.01208 | -91.68772 | 36858 ft | 511 kts | 136° |
| 2026-05-06 22:25 | 30.96794 | -91.62348 | 36868 ft | 508 kts | 136° |
| 2026-05-06 22:26 | 30.92359 | -91.55901 | 36877 ft | 509 kts | 136° |
| 2026-05-06 22:26 | 30.87946 | -91.49497 | 36875 ft | 507 kts | 136° |
| 2026-05-06 22:27 | 30.83508 | -91.43072 | 36877 ft | 508 kts | 136° |
| 2026-05-06 22:27 | 30.79075 | -91.36666 | 36882 ft | 510 kts | 136° |
| 2026-05-06 22:28 | 30.74652 | -91.30283 | 36886 ft | 507 kts | 136° |
| 2026-05-06 22:28 | 30.70219 | -91.23894 | 36890 ft | 505 kts | 136° |
| 2026-05-06 22:29 | 30.65797 | -91.17532 | 36891 ft | 506 kts | 136° |
| 2026-05-06 22:29 | 30.61367 | -91.11176 | 36887 ft | 506 kts | 136° |
| 2026-05-06 22:30 | 30.56926 | -91.04811 | 36881 ft | 507 kts | 136° |
| 2026-05-06 22:30 | 30.52468 | -90.98426 | 36887 ft | 506 kts | 136° |
| 2026-05-06 22:31 | 30.48036 | -90.92089 | 36883 ft | 506 kts | 136° |
| 2026-05-06 22:31 | 30.43570 | -90.85718 | 36891 ft | 506 kts | 136° |
| 2026-05-06 22:32 | 30.39156 | -90.79427 | 36897 ft | 505 kts | 136° |
| 2026-05-06 22:32 | 30.34740 | -90.73141 | 36900 ft | 504 kts | 136° |
| 2026-05-06 22:33 | 30.30302 | -90.66843 | 36899 ft | 505 kts | 136° |
| 2026-05-06 22:33 | 30.25876 | -90.60568 | 36911 ft | 503 kts | 136° |
| 2026-05-06 22:34 | 30.21436 | -90.54288 | 36911 ft | 505 kts | 136° |
| 2026-05-06 22:34 | 30.16999 | -90.48016 | 36913 ft | 505 kts | 136° |
| 2026-05-06 22:35 | 30.12548 | -90.41731 | 36912 ft | 503 kts | 136° |
| 2026-05-06 22:35 | 30.08116 | -90.35488 | 36916 ft | 506 kts | 136° |
| 2026-05-06 22:36 | 30.03663 | -90.29221 | 36918 ft | 503 kts | 136° |
| 2026-05-06 22:36 | 29.99206 | -90.22961 | 36918 ft | 504 kts | 137° |
| 2026-05-06 22:37 | 29.94749 | -90.16709 | 36922 ft | 502 kts | 136° |
| 2026-05-06 22:37 | 29.90302 | -90.10485 | 36920 ft | 504 kts | 136° |
| 2026-05-06 22:38 | 29.85866 | -90.04285 | 36920 ft | 503 kts | 136° |
| 2026-05-06 22:38 | 29.81404 | -89.98056 | 36918 ft | 502 kts | 136° |
| 2026-05-06 22:39 | 29.76946 | -89.91846 | 36923 ft | 504 kts | 136° |
| 2026-05-06 22:39 | 29.72482 | -89.85633 | 36922 ft | 503 kts | 136° |
| 2026-05-06 22:40 | 29.68014 | -89.79424 | 36920 ft | 503 kts | 136° |
| 2026-05-06 22:40 | 29.63529 | -89.73203 | 36931 ft | 502 kts | 136° |
| 2026-05-06 22:41 | 29.56804 | -89.63891 | 36939 ft | 504 kts | 136° |
| 2026-05-06 22:42 | 29.52372 | -89.57765 | 36944 ft | 501 kts | 136° |
| 2026-05-06 22:42 | 29.47898 | -89.51590 | 36942 ft | 502 kts | 136° |
| 2026-05-06 22:43 | 29.43443 | -89.45454 | 36948 ft | 502 kts | 135° |
| 2026-05-06 22:43 | 29.38960 | -89.39288 | 36949 ft | 501 kts | 135° |
| 2026-05-06 22:44 | 29.34504 | -89.33169 | 36953 ft | 501 kts | 136° |
| 2026-05-06 22:44 | 29.30049 | -89.27056 | 36959 ft | 500 kts | 136° |
| 2026-05-06 22:45 | 29.25605 | -89.20970 | 36963 ft | 501 kts | 136° |
| 2026-05-06 22:45 | 29.21115 | -89.14831 | 36959 ft | 500 kts | 136° |
| 2026-05-06 22:46 | 29.16639 | -89.08718 | 36956 ft | 500 kts | 136° |
| 2026-05-06 22:46 | 29.12160 | -89.02612 | 36961 ft | 499 kts | 136° |
| 2026-05-06 22:47 | 29.07670 | -88.96503 | 36963 ft | 501 kts | 135° |
| 2026-05-06 22:47 | 29.03181 | -88.90404 | 36967 ft | 501 kts | 135° |
| 2026-05-06 22:48 | 28.98685 | -88.84300 | 36967 ft | 501 kts | 135° |
| 2026-05-06 22:48 | 28.94172 | -88.78183 | 36968 ft | 500 kts | 135° |
| 2026-05-06 22:49 | 28.89896 | -88.71915 | 36968 ft | 505 kts | 126° |
| 2026-05-06 22:49 | 28.86793 | -88.64653 | 36971 ft | 513 kts | 114° |
| 2026-05-06 22:50 | 28.84421 | -88.56948 | 36967 ft | 514 kts | 110° |
| 2026-05-06 22:50 | 28.82311 | -88.49181 | 36970 ft | 514 kts | 109° |
| 2026-05-06 22:51 | 28.80215 | -88.41332 | 36971 ft | 514 kts | 109° |
| 2026-05-06 22:51 | 28.78102 | -88.33566 | 36970 ft | 513 kts | 110° |
| 2026-05-06 22:52 | 28.75966 | -88.25854 | 36971 ft | 513 kts | 110° |
| 2026-05-06 22:52 | 28.73792 | -88.18079 | 36971 ft | 513 kts | 110° |
| 2026-05-06 22:53 | 28.71614 | -88.10325 | 36974 ft | 512 kts | 110° |
| 2026-05-06 22:53 | 28.69445 | -88.02629 | 36970 ft | 512 kts | 110° |
| 2026-05-06 22:54 | 28.67267 | -87.94920 | 36971 ft | 513 kts | 110° |
| 2026-05-06 22:54 | 28.65068 | -87.87148 | 36978 ft | 512 kts | 110° |
| 2026-05-06 22:55 | 28.62900 | -87.79499 | 36987 ft | 510 kts | 110° |
| 2026-05-06 22:55 | 28.60710 | -87.71798 | 36989 ft | 510 kts | 110° |
| 2026-05-06 22:56 | 28.58507 | -87.64067 | 36995 ft | 511 kts | 110° |
| 2026-05-06 22:56 | 28.56319 | -87.56410 | 36997 ft | 509 kts | 110° |
| 2026-05-06 22:57 | 28.54123 | -87.48740 | 36997 ft | 511 kts | 110° |
| 2026-05-06 22:57 | 28.51911 | -87.41032 | 36998 ft | 510 kts | 110° |
| 2026-05-06 22:58 | 28.49718 | -87.33403 | 37000 ft | 509 kts | 110° |
| 2026-05-06 22:58 | 28.47515 | -87.25764 | 36998 ft | 509 kts | 110° |
| 2026-05-06 22:59 | 28.45306 | -87.18122 | 36996 ft | 508 kts | 110° |
| 2026-05-06 22:59 | 28.43101 | -87.10513 | 36998 ft | 509 kts | 110° |
| 2026-05-06 23:00 | 28.40879 | -87.02857 | 36999 ft | 510 kts | 110° |
| 2026-05-06 23:00 | 28.38666 | -86.95258 | 37003 ft | 509 kts | 110° |
| 2026-05-06 23:01 | 28.36450 | -86.87669 | 37002 ft | 509 kts | 110° |
| 2026-05-06 23:01 | 28.34208 | -86.80001 | 37003 ft | 509 kts | 110° |
| 2026-05-06 23:02 | 28.31985 | -86.72415 | 37001 ft | 508 kts | 110° |
| 2026-05-06 23:02 | 28.29755 | -86.64808 | 37004 ft | 508 kts | 110° |
| 2026-05-06 23:03 | 28.27520 | -86.57148 | 37004 ft | 508 kts | 110° |
| 2026-05-06 23:03 | 28.25309 | -86.49577 | 37005 ft | 508 kts | 110° |
| 2026-05-06 23:04 | 28.23088 | -86.41993 | 37006 ft | 507 kts | 110° |
| 2026-05-06 23:04 | 28.20864 | -86.34417 | 37006 ft | 507 kts | 110° |
| 2026-05-06 23:05 | 28.18626 | -86.26817 | 37007 ft | 507 kts | 110° |
| 2026-05-06 23:05 | 28.16386 | -86.19228 | 37007 ft | 508 kts | 110° |
| 2026-05-06 23:06 | 28.14135 | -86.11627 | 37007 ft | 506 kts | 110° |
| 2026-05-06 23:06 | 28.11896 | -86.04079 | 37008 ft | 507 kts | 110° |
| 2026-05-06 23:07 | 28.09651 | -85.96529 | 37007 ft | 508 kts | 110° |
| 2026-05-06 23:07 | 28.07402 | -85.88980 | 37009 ft | 507 kts | 110° |
| 2026-05-06 23:08 | 28.05137 | -85.81396 | 37014 ft | 508 kts | 110° |
| 2026-05-06 23:08 | 28.02871 | -85.73821 | 37022 ft | 507 kts | 110° |
| 2026-05-06 23:09 | 28.00618 | -85.66306 | 37022 ft | 507 kts | 110° |
| 2026-05-06 23:09 | 27.98342 | -85.58734 | 37021 ft | 507 kts | 110° |
| 2026-05-06 23:10 | 27.96070 | -85.51193 | 37026 ft | 506 kts | 110° |
| 2026-05-06 23:10 | 27.93796 | -85.43668 | 37022 ft | 505 kts | 109° |
| 2026-05-06 23:11 | 27.91509 | -85.36112 | 37021 ft | 514 kts | 109° |
| 2026-05-06 23:11 | 27.89184 | -85.28424 | 37022 ft | 521 kts | 109° |
| 2026-05-06 23:12 | 27.87296 | -85.20493 | 37024 ft | 524 kts | 102° |
| 2026-05-06 23:12 | 27.85906 | -85.12369 | 37028 ft | 524 kts | 100° |
| 2026-05-06 23:13 | 27.84664 | -85.04318 | 37028 ft | 524 kts | 99° |
| 2026-05-06 23:13 | 27.83387 | -84.96221 | 37031 ft | 524 kts | 100° |
| 2026-05-06 23:14 | 27.82111 | -84.88137 | 37030 ft | 525 kts | 98° |
| 2026-05-06 23:14 | 27.81457 | -84.79926 | 37032 ft | 524 kts | 90° |
| 2026-05-06 23:15 | 27.81575 | -84.71702 | 37035 ft | 524 kts | 85° |
| 2026-05-06 23:15 | 27.82011 | -84.63468 | 37035 ft | 523 kts | 84° |
| 2026-05-06 23:16 | 27.82497 | -84.55267 | 37037 ft | 524 kts | 84° |
| 2026-05-06 23:16 | 27.82940 | -84.47128 | 37041 ft | 523 kts | 84° |
| 2026-05-06 23:17 | 27.83343 | -84.38934 | 37041 ft | 523 kts | 85° |
| 2026-05-06 23:17 | 27.83722 | -84.30730 | 37042 ft | 522 kts | 85° |
| 2026-05-06 23:18 | 27.84088 | -84.22536 | 37043 ft | 523 kts | 85° |
| 2026-05-06 23:18 | 27.84448 | -84.14348 | 37045 ft | 524 kts | 85° |
| 2026-05-06 23:19 | 27.84808 | -84.06110 | 37048 ft | 524 kts | 85° |
| 2026-05-06 23:19 | 27.85162 | -83.97885 | 37048 ft | 525 kts | 85° |
| 2026-05-06 23:20 | 27.85513 | -83.89641 | 37049 ft | 524 kts | 85° |
| 2026-05-06 23:20 | 27.85686 | -83.85539 | 36809 ft | 527 kts | 85° |
| 2026-05-06 23:20 | 27.85859 | -83.81404 | 36349 ft | 525 kts | 85° |
| 2026-05-06 23:20 | 27.86029 | -83.77293 | 35768 ft | 523 kts | 85° |
| 2026-05-06 23:21 | 27.86197 | -83.73205 | 35056 ft | 522 kts | 85° |
| 2026-05-06 23:21 | 27.86360 | -83.69160 | 34314 ft | 522 kts | 85° |
| 2026-05-06 23:21 | 27.86526 | -83.65077 | 33541 ft | 523 kts | 85° |
| 2026-05-06 23:21 | 27.86691 | -83.60977 | 32761 ft | 524 kts | 85° |
| 2026-05-06 23:22 | 27.86859 | -83.56821 | 31986 ft | 527 kts | 85° |
| 2026-05-06 23:22 | 27.87023 | -83.52707 | 31159 ft | 530 kts | 85° |
| 2026-05-06 23:22 | 27.87189 | -83.48546 | 30298 ft | 531 kts | 85° |
| 2026-05-06 23:22 | 27.87354 | -83.44360 | 29394 ft | 533 kts | 85° |
| 2026-05-06 23:23 | 27.87515 | -83.40220 | 28461 ft | 535 kts | 85° |
| 2026-05-06 23:23 | 27.87676 | -83.36029 | 27572 ft | 535 kts | 85° |
| 2026-05-06 23:23 | 27.87835 | -83.31854 | 26903 ft | 533 kts | 86° |
| 2026-05-06 23:23 | 27.87993 | -83.27675 | 26283 ft | 535 kts | 86° |
| 2026-05-06 23:24 | 27.88129 | -83.23446 | 26042 ft | 537 kts | 87° |
| 2026-05-06 23:24 | 27.88194 | -83.19259 | 26034 ft | 543 kts | 88° |
| 2026-05-06 23:24 | 27.88207 | -83.15001 | 26031 ft | 544 kts | 89° |
| 2026-05-06 23:24 | 27.88192 | -83.10716 | 26032 ft | 544 kts | 89° |
| 2026-05-06 23:25 | 27.88164 | -83.06413 | 26030 ft | 545 kts | 89° |
| 2026-05-06 23:25 | 27.88137 | -83.02188 | 26031 ft | 543 kts | 89° |
| 2026-05-06 23:25 | 27.88113 | -82.97911 | 26037 ft | 544 kts | 89° |
| 2026-05-06 23:25 | 27.88096 | -82.93633 | 26035 ft | 544 kts | 89° |
| 2026-05-06 23:26 | 27.88084 | -82.89357 | 26037 ft | 543 kts | 89° |
| 2026-05-06 23:26 | 27.88076 | -82.85088 | 26037 ft | 544 kts | 89° |
| 2026-05-06 23:26 | 27.88071 | -82.80830 | 25817 ft | 543 kts | 88° |
| 2026-05-06 23:26 | 27.88067 | -82.76565 | 25566 ft | 541 kts | 89° |
| 2026-05-06 23:27 | 27.88062 | -82.72326 | 25075 ft | 541 kts | 88° |
| 2026-05-06 23:27 | 27.88057 | -82.68134 | 24393 ft | 536 kts | 88° |
| 2026-05-06 23:27 | 27.88041 | -82.63913 | 23657 ft | 531 kts | 89° |
| 2026-05-06 23:27 | 27.88001 | -82.59825 | 22921 ft | 526 kts | 89° |
| 2026-05-06 23:28 | 27.87941 | -82.55665 | 22177 ft | 521 kts | 89° |
| 2026-05-06 23:28 | 27.87873 | -82.51620 | 21439 ft | 516 kts | 89° |
| 2026-05-06 23:28 | 27.87816 | -82.47596 | 20714 ft | 511 kts | 88° |
| 2026-05-06 23:28 | 27.87916 | -82.43637 | 20173 ft | 499 kts | 84° |
| 2026-05-06 23:29 | 27.88447 | -82.39854 | 20038 ft | 477 kts | 73° |
| 2026-05-06 23:29 | 27.89433 | -82.36397 | 20031 ft | 454 kts | 66° |
| 2026-05-06 23:29 | 27.90592 | -82.33175 | 20035 ft | 433 kts | 64° |
| 2026-05-06 23:29 | 27.91800 | -82.30143 | 20034 ft | 414 kts | 62° |
| 2026-05-06 23:30 | 27.93006 | -82.27251 | 20037 ft | 399 kts | 61° |
| 2026-05-06 23:30 | 27.94198 | -82.24435 | 20038 ft | 400 kts | 61° |
| 2026-05-06 23:30 | 27.95408 | -82.21567 | 20035 ft | 403 kts | 61° |
| 2026-05-06 23:30 | 27.96588 | -82.18733 | 19651 ft | 402 kts | 62° |
| 2026-05-06 23:31 | 27.97775 | -82.15845 | 19124 ft | 400 kts | 62° |
| 2026-05-06 23:31 | 27.98919 | -82.13028 | 18594 ft | 397 kts | 63° |
| 2026-05-06 23:31 | 28.00066 | -82.10184 | 18054 ft | 394 kts | 63° |
| 2026-05-06 23:31 | 28.01191 | -82.07378 | 17526 ft | 391 kts | 64° |
| 2026-05-06 23:32 | 28.02312 | -82.04575 | 16961 ft | 389 kts | 64° |
| 2026-05-06 23:32 | 28.03417 | -82.01798 | 16474 ft | 385 kts | 64° |
| 2026-05-06 23:32 | 28.04501 | -81.99071 | 16198 ft | 374 kts | 64° |
| 2026-05-06 23:32 | 28.05547 | -81.96434 | 16002 ft | 362 kts | 63° |
| 2026-05-06 23:33 | 28.06557 | -81.93912 | 15978 ft | 344 kts | 63° |
| 2026-05-06 23:33 | 28.07528 | -81.91518 | 15985 ft | 329 kts | 63° |
| 2026-05-06 23:33 | 28.08490 | -81.89162 | 15990 ft | 329 kts | 63° |
| 2026-05-06 23:33 | 28.09480 | -81.86816 | 15989 ft | 332 kts | 60° |
| 2026-05-06 23:34 | 28.10532 | -81.84513 | 15882 ft | 329 kts | 59° |
| 2026-05-06 23:34 | 28.11605 | -81.82250 | 15558 ft | 324 kts | 59° |
| 2026-05-06 23:34 | 28.12672 | -81.80015 | 15170 ft | 322 kts | 59° |
| 2026-05-06 23:34 | 28.13736 | -81.77772 | 14791 ft | 320 kts | 59° |
| 2026-05-06 23:35 | 28.14777 | -81.75561 | 14406 ft | 317 kts | 59° |
| 2026-05-06 23:35 | 28.15799 | -81.73380 | 14034 ft | 315 kts | 59° |
| 2026-05-06 23:35 | 28.16824 | -81.71182 | 13655 ft | 312 kts | 59° |
| 2026-05-06 23:35 | 28.17833 | -81.69019 | 13275 ft | 309 kts | 59° |
| 2026-05-06 23:36 | 28.18828 | -81.66878 | 12903 ft | 306 kts | 59° |
| 2026-05-06 23:36 | 28.19810 | -81.64768 | 12544 ft | 303 kts | 59° |
| 2026-05-06 23:36 | 28.20794 | -81.62651 | 12167 ft | 301 kts | 59° |
| 2026-05-06 23:36 | 28.21771 | -81.60551 | 11800 ft | 299 kts | 60° |
| 2026-05-06 23:37 | 28.22732 | -81.58484 | 11440 ft | 296 kts | 60° |
| 2026-05-06 23:37 | 28.23688 | -81.56428 | 11082 ft | 294 kts | 60° |
| 2026-05-06 23:37 | 28.24638 | -81.54395 | 10721 ft | 292 kts | 58° |
| 2026-05-06 23:37 | 28.25709 | -81.52445 | 10363 ft | 289 kts | 54° |